createdAt,value
2017-05-09T00:00:21.373Z,34.03
2017-05-09T00:01:31.634Z,33.74
2017-05-09T00:02:41.899Z,33.64
2017-05-09T00:03:52.160Z,33.74
2017-05-09T00:05:02.419Z,33.45
2017-05-09T00:06:12.375Z,33.45
2017-05-09T00:07:22.323Z,33.74
2017-05-09T00:08:32.578Z,33.93
2017-05-09T00:09:42.239Z,33.45
2017-05-09T00:10:52.191Z,33.64
2017-05-09T00:12:02.142Z,33.64
2017-05-09T00:13:12.410Z,33.45
2017-05-09T00:14:22.670Z,33.44
2017-05-09T00:15:32.626Z,33.54
2017-05-09T00:16:42.892Z,33.74
2017-05-09T00:17:52.846Z,33.45
2017-05-09T00:19:03.113Z,33.74
2017-05-09T00:20:12.756Z,33.54
2017-05-09T00:21:22.381Z,33.72
2017-05-09T00:22:32.638Z,33.93
2017-05-09T00:23:42.276Z,33.54
2017-05-09T00:24:52.544Z,33.64
2017-05-09T00:26:01.877Z,33.54
2017-05-09T00:27:11.210Z,33.44
2017-05-09T00:28:21.469Z,33.53
2017-05-09T00:29:31.416Z,33.36
2017-05-09T00:30:41.358Z,33.26
2017-05-09T00:31:51.608Z,33.62
2017-05-09T00:33:01.871Z,33.24
2017-05-09T00:34:12.127Z,33.44
2017-05-09T00:35:22.107Z,33.26
2017-05-09T00:36:31.760Z,33.34
2017-05-09T00:37:42.017Z,33.84
2017-05-09T00:38:52.285Z,33.26
2017-05-09T00:40:02.236Z,33.34
2017-05-09T00:41:12.492Z,33.26
2017-05-09T00:42:22.759Z,33.24
2017-05-09T00:43:33.021Z,33.26
2017-05-09T00:44:43.279Z,33.15
2017-05-09T00:45:53.229Z,33.24
2017-05-09T00:47:03.504Z,33.24
2017-05-09T00:48:13.143Z,33.05
2017-05-09T00:49:23.402Z,33.24
2017-05-09T00:50:33.359Z,33.34
2017-05-09T00:51:43.621Z,33.15
2017-05-09T00:52:53.564Z,33.15
2017-05-09T00:54:03.204Z,33.53
2017-05-09T00:55:13.156Z,33.24
2017-05-09T00:56:23.103Z,33.34
2017-05-09T00:57:33.385Z,33.15
2017-05-09T00:58:43.334Z,33.05
2017-05-09T00:59:53.589Z,32.86
2017-05-09T01:01:03.877Z,33.15
2017-05-09T01:02:14.177Z,33.05
2017-05-09T01:03:24.126Z,33.34
2017-05-09T01:04:34.388Z,32.95
2017-05-09T01:05:44.652Z,33.36
2017-05-09T01:06:54.590Z,33.15
2017-05-09T01:08:04.845Z,33.24
2017-05-09T01:09:14.794Z,33.05
2017-05-09T01:10:24.744Z,33.16
2017-05-09T01:11:35.004Z,33.24
2017-05-09T01:12:44.957Z,33.15
2017-05-09T01:13:55.220Z,33.24
2017-05-09T01:15:05.165Z,33.24
2017-05-09T01:16:15.425Z,33.15
2017-05-09T01:17:25.366Z,32.95
2017-05-09T01:18:35.312Z,33.05
2017-05-09T01:19:45.578Z,33.24
2017-05-09T01:20:54.890Z,33.34
2017-05-09T01:22:05.150Z,32.76
2017-05-09T01:23:15.095Z,33.34
2017-05-09T01:24:25.046Z,33.24
2017-05-09T01:25:35.306Z,33.53
2017-05-09T01:26:45.601Z,33.44
2017-05-09T01:27:55.236Z,32.76
2017-05-09T01:29:05.496Z,33.34
2017-05-09T01:30:15.440Z,33.34
2017-05-09T01:31:25.084Z,32.95
2017-05-09T01:32:35.350Z,32.86
2017-05-09T01:33:44.990Z,33.24
2017-05-09T01:34:54.939Z,33.24
2017-05-09T01:36:05.201Z,32.95
2017-05-09T01:37:14.827Z,33.05
2017-05-09T01:38:24.773Z,32.67
2017-05-09T01:39:35.054Z,32.86
2017-05-09T01:40:44.692Z,32.86
2017-05-09T01:41:54.952Z,33.24
2017-05-09T01:43:04.897Z,33.24
2017-05-09T01:44:15.202Z,32.67
2017-05-09T01:45:25.151Z,33.05
2017-05-09T01:46:35.090Z,32.76
2017-05-09T01:47:44.720Z,32.97
2017-05-09T01:48:54.354Z,32.95
2017-05-09T01:50:04.613Z,32.76
2017-05-09T01:51:14.871Z,32.86
2017-05-09T01:52:24.817Z,32.67
2017-05-09T01:53:34.780Z,33.05
2017-05-09T01:54:45.046Z,32.95
2017-05-09T01:55:55.313Z,33.15
2017-05-09T01:57:05.259Z,32.86
2017-05-09T01:58:15.514Z,33.34
2017-05-09T01:59:25.162Z,33.15
2017-05-09T02:00:35.108Z,32.76
2017-05-09T02:01:45.362Z,33.05
2017-05-09T02:02:55.304Z,32.95
2017-05-09T02:04:05.566Z,33.24
2017-05-09T02:05:15.196Z,32.95
2017-05-09T02:06:25.458Z,32.47
2017-05-09T02:07:35.736Z,32.67
2017-05-09T02:08:45.688Z,33.15
2017-05-09T02:09:55.948Z,33.34
2017-05-09T02:11:06.213Z,33.05
2017-05-09T02:12:16.478Z,32.86
2017-05-09T02:13:26.738Z,32.95
2017-05-09T02:14:37.005Z,33.05
2017-05-09T02:15:46.955Z,32.86
2017-05-09T02:16:56.898Z,33.05
2017-05-09T02:18:07.166Z,32.76
2017-05-09T02:19:17.423Z,33.15
2017-05-09T02:20:27.371Z,33.15
2017-05-09T02:21:37.638Z,32.86
2017-05-09T02:22:47.893Z,32.95
2017-05-09T02:23:58.161Z,32.86
2017-05-09T02:25:08.420Z,33.15
2017-05-09T02:26:18.046Z,32.76
2017-05-09T02:27:27.998Z,33.15
2017-05-09T02:28:38.263Z,32.95
2017-05-09T02:29:48.529Z,33.05
2017-05-09T02:30:58.478Z,32.57
2017-05-09T02:32:08.429Z,32.86
2017-05-09T02:33:18.063Z,32.86
2017-05-09T02:34:28.322Z,33.05
2017-05-09T02:35:38.581Z,32.86
2017-05-09T02:36:48.546Z,33.05
2017-05-09T02:37:58.491Z,33.05
2017-05-09T02:39:08.435Z,32.76
2017-05-09T02:40:18.390Z,32.95
2017-05-09T02:41:28.649Z,32.95
2017-05-09T02:42:38.590Z,32.86
2017-05-09T02:43:48.548Z,32.57
2017-05-09T02:44:58.810Z,32.86
2017-05-09T02:46:09.069Z,32.95
2017-05-09T02:47:19.333Z,32.67
2017-05-09T02:48:29.597Z,32.67
2017-05-09T02:49:39.854Z,32.86
2017-05-09T02:50:50.124Z,32.86
2017-05-09T02:51:59.770Z,32.86
2017-05-09T02:53:09.724Z,32.57
2017-05-09T02:54:19.667Z,32.76
2017-05-09T02:55:29.613Z,32.67
2017-05-09T02:56:39.253Z,32.47
2017-05-09T02:57:48.889Z,33.05
2017-05-09T02:58:59.151Z,32.47
2017-05-09T03:00:08.786Z,32.67
2017-05-09T03:01:19.046Z,32.86
2017-05-09T03:02:29.306Z,32.95
2017-05-09T03:03:39.563Z,32.86
2017-05-09T03:04:49.826Z,32.86
2017-05-09T03:06:00.095Z,32.86
2017-05-09T03:07:10.047Z,33.34
2017-05-09T03:08:20.304Z,33.05
2017-05-09T03:09:30.565Z,32.76
2017-05-09T03:10:40.832Z,33.05
2017-05-09T03:11:50.803Z,33.15
2017-05-09T03:13:01.068Z,33.05
2017-05-09T03:14:11.019Z,32.76
2017-05-09T03:15:20.963Z,33.05
2017-05-09T03:16:30.586Z,33.34
2017-05-09T03:17:40.850Z,32.86
2017-05-09T03:18:50.493Z,33.05
2017-05-09T03:20:00.767Z,32.86
2017-05-09T03:21:10.402Z,33.15
2017-05-09T03:22:20.345Z,32.86
2017-05-09T03:23:30.606Z,32.86
2017-05-09T03:24:40.559Z,32.57
2017-05-09T03:25:50.825Z,32.76
2017-05-09T03:27:01.088Z,32.86
2017-05-09T03:28:11.379Z,32.76
2017-05-09T03:29:21.026Z,32.57
2017-05-09T03:30:31.282Z,32.67
2017-05-09T03:31:41.229Z,32.47
2017-05-09T03:32:51.495Z,32.86
2017-05-09T03:34:01.452Z,33.05
2017-05-09T03:35:11.718Z,32.49
2017-05-09T03:36:21.662Z,32.67
2017-05-09T03:37:31.919Z,32.76
2017-05-09T03:38:41.858Z,33.15
2017-05-09T03:39:52.132Z,33.05
2017-05-09T03:41:02.396Z,32.67
2017-05-09T03:42:12.368Z,32.86
2017-05-09T03:43:22.361Z,32.76
2017-05-09T03:44:32.626Z,32.86
2017-05-09T03:45:42.574Z,32.67
2017-05-09T03:46:52.534Z,32.57
2017-05-09T03:48:02.483Z,33.05
2017-05-09T03:49:12.744Z,32.67
2017-05-09T03:50:23.003Z,32.38
2017-05-09T03:51:33.266Z,32.38
2017-05-09T03:52:43.216Z,32.76
2017-05-09T03:53:53.486Z,32.95
2017-05-09T03:55:03.763Z,32.67
2017-05-09T03:56:12.768Z,33.05
2017-05-09T03:57:22.394Z,32.76
2017-05-09T03:58:31.715Z,32.67
2017-05-09T03:59:42.005Z,32.86
2017-05-09T04:00:52.274Z,32.39
2017-05-09T04:02:01.595Z,32.57
2017-05-09T04:03:11.544Z,32.68
2017-05-09T04:04:21.802Z,32.47
2017-05-09T04:05:32.068Z,32.57
2017-05-09T04:06:42.332Z,32.47
2017-05-09T04:07:52.276Z,32.38
2017-05-09T04:09:02.546Z,32.09
2017-05-09T04:10:12.495Z,32.76
2017-05-09T04:11:22.442Z,32.49
2017-05-09T04:12:32.397Z,32.38
2017-05-09T04:13:42.656Z,32.59
2017-05-09T04:14:52.921Z,32.39
2017-05-09T04:16:02.867Z,32.49
2017-05-09T04:17:13.127Z,32.39
2017-05-09T04:18:23.069Z,32.3
2017-05-09T04:19:33.333Z,32.59
2017-05-09T04:20:43.289Z,32.3
2017-05-09T04:21:53.550Z,32.3
2017-05-09T04:23:02.868Z,32.1
2017-05-09T04:24:13.133Z,32.49
2017-05-09T04:25:23.081Z,32.39
2017-05-09T04:26:33.354Z,32.49
2017-05-09T04:27:42.994Z,32.49
2017-05-09T04:28:53.250Z,32.1
2017-05-09T04:30:03.507Z,32.1
2017-05-09T04:31:13.768Z,32.2
2017-05-09T04:32:23.713Z,32.3
2017-05-09T04:33:33.665Z,32.1
2017-05-09T04:34:43.652Z,32.3
2017-05-09T04:35:53.601Z,32.1
2017-05-09T04:37:03.538Z,32.39
2017-05-09T04:38:13.483Z,32.1
2017-05-09T04:39:23.153Z,32.47
2017-05-09T04:40:33.420Z,32.3
2017-05-09T04:41:43.058Z,32.49
2017-05-09T04:42:52.381Z,32.38
2017-05-09T04:44:02.643Z,32.47
2017-05-09T04:45:12.589Z,32.38
2017-05-09T04:46:22.529Z,32.49
2017-05-09T04:47:32.494Z,32.39
2017-05-09T04:48:42.454Z,32.67
2017-05-09T04:49:52.714Z,32.86
2017-05-09T04:51:02.978Z,32.78
2017-05-09T04:52:13.239Z,32.68
2017-05-09T04:53:23.506Z,32.39
2017-05-09T04:54:33.140Z,32.57
2017-05-09T04:55:43.088Z,32.68
2017-05-09T04:56:53.354Z,32.57
2017-05-09T04:58:03.298Z,32.76
2017-05-09T04:59:13.556Z,32.76
2017-05-09T05:00:23.502Z,32.57
2017-05-09T05:01:33.756Z,32.78
2017-05-09T05:02:44.014Z,32.49
2017-05-09T05:03:53.957Z,32.86
2017-05-09T05:05:03.915Z,32.78
2017-05-09T05:06:14.180Z,32.78
2017-05-09T05:07:24.444Z,32.47
2017-05-09T05:08:34.698Z,32.57
2017-05-09T05:09:44.957Z,32.59
2017-05-09T05:10:55.227Z,32.86
2017-05-09T05:12:05.173Z,32.67
2017-05-09T05:13:15.125Z,32.57
2017-05-09T05:14:25.074Z,32.86
2017-05-09T05:15:34.717Z,32.97
2017-05-09T05:16:44.034Z,32.87
2017-05-09T05:17:54.304Z,32.76
2017-05-09T05:19:04.568Z,32.68
2017-05-09T05:20:14.515Z,32.57
2017-05-09T05:21:24.467Z,32.68
2017-05-09T05:22:34.727Z,32.47
2017-05-09T05:23:44.981Z,32.49
2017-05-09T05:24:55.244Z,32.38
2017-05-09T05:26:04.574Z,32.57
2017-05-09T05:27:14.206Z,32.59
2017-05-09T05:28:24.470Z,32.39
2017-05-09T05:29:34.729Z,32.47
2017-05-09T05:30:44.668Z,32.68
2017-05-09T05:31:54.933Z,32.39
2017-05-09T05:33:04.879Z,32.59
2017-05-09T05:34:14.842Z,32.39
2017-05-09T05:35:24.473Z,32.3
2017-05-09T05:36:34.728Z,32.39
2017-05-09T05:37:44.993Z,32.59
2017-05-09T05:38:54.632Z,32.68
2017-05-09T05:40:04.268Z,32.3
2017-05-09T05:41:14.220Z,32.3
2017-05-09T05:42:24.488Z,32.49
2017-05-09T05:43:34.746Z,32.39
2017-05-09T05:44:44.685Z,32.39
2017-05-09T05:45:54.943Z,32.2
2017-05-09T05:47:05.210Z,32.28
2017-05-09T05:48:15.161Z,32.59
2017-05-09T05:49:25.429Z,32.2
2017-05-09T05:50:35.062Z,32.87
2017-05-09T05:51:44.380Z,32.39
2017-05-09T05:52:54.640Z,32.2
2017-05-09T05:54:04.895Z,32.39
2017-05-09T05:55:14.534Z,32.3
2017-05-09T05:56:24.173Z,32.39
2017-05-09T05:57:34.442Z,32.49
2017-05-09T05:58:44.395Z,32.1
2017-05-09T05:59:54.348Z,32.2
2017-05-09T06:01:04.614Z,31.72
2017-05-09T06:02:14.909Z,32.1
2017-05-09T06:03:25.170Z,31.72
2017-05-09T06:04:35.433Z,31.82
2017-05-09T06:05:45.061Z,31.62
2017-05-09T06:06:54.697Z,32.01
2017-05-09T06:08:04.964Z,31.62
2017-05-09T06:09:15.235Z,31.92
2017-05-09T06:10:25.177Z,31.8
2017-05-09T06:11:35.444Z,31.72
2017-05-09T06:12:45.716Z,31.72
2017-05-09T06:13:55.986Z,32.1
2017-05-09T06:15:06.247Z,31.82
2017-05-09T06:16:16.185Z,32.1
2017-05-09T06:17:26.130Z,32.1
2017-05-09T06:18:36.391Z,32.01
2017-05-09T06:19:46.030Z,31.62
2017-05-09T06:20:56.294Z,31.82
2017-05-09T06:22:06.558Z,31.72
2017-05-09T06:23:16.194Z,31.53
2017-05-09T06:24:26.152Z,31.53
2017-05-09T06:25:36.416Z,31.15
2017-05-09T06:26:46.673Z,31.34
2017-05-09T06:27:56.936Z,30.66
2017-05-09T06:29:06.883Z,31.72
2017-05-09T06:30:17.143Z,31.05
2017-05-09T06:31:27.405Z,31.05
2017-05-09T06:32:37.702Z,31.34
2017-05-09T06:33:47.663Z,31.15
2017-05-09T06:34:57.924Z,30.66
2017-05-09T06:36:07.552Z,31.05
2017-05-09T06:37:17.185Z,30.28
2017-05-09T06:38:27.131Z,30.38
2017-05-09T06:39:37.392Z,30.28
2017-05-09T06:40:47.654Z,30.38
2017-05-09T06:41:57.921Z,30.85
2017-05-09T06:43:07.609Z,30.46
2017-05-09T06:44:17.557Z,30.84
2017-05-09T06:45:27.822Z,30.66
2017-05-09T06:46:38.083Z,30.66
2017-05-09T06:47:47.718Z,31.15
2017-05-09T06:48:57.665Z,30.76
2017-05-09T06:50:07.927Z,31.15
2017-05-09T06:51:17.873Z,31.34
2017-05-09T06:52:28.127Z,31.24
2017-05-09T06:53:38.393Z,30.76
2017-05-09T06:54:48.661Z,30.57
2017-05-09T06:55:58.612Z,30.47
2017-05-09T06:57:08.875Z,30.46
2017-05-09T06:58:18.824Z,30.55
2017-05-09T06:59:29.090Z,30.26
2017-05-09T07:00:39.347Z,30.17
2017-05-09T07:01:49.601Z,29.7
2017-05-09T07:02:59.554Z,30.28
2017-05-09T07:04:09.826Z,30.08
2017-05-09T07:05:19.782Z,30.18
2017-05-09T07:06:30.032Z,30.47
2017-05-09T07:07:39.661Z,30.66
2017-05-09T07:08:49.936Z,30.18
2017-05-09T07:09:59.877Z,30.18
2017-05-09T07:11:09.837Z,30.08
2017-05-09T07:12:19.789Z,30.47
2017-05-09T07:13:30.042Z,29.9
2017-05-09T07:14:39.679Z,30.38
2017-05-09T07:15:49.944Z,30.38
2017-05-09T07:16:59.891Z,30.47
2017-05-09T07:18:10.162Z,30.38
2017-05-09T07:19:20.120Z,30.57
2017-05-09T07:20:30.070Z,30.66
2017-05-09T07:21:39.710Z,30.95
2017-05-09T07:22:49.974Z,30.57
2017-05-09T07:23:59.923Z,30.28
2017-05-09T07:25:10.186Z,30.38
2017-05-09T07:26:20.446Z,30.66
2017-05-09T07:27:30.395Z,30.57
2017-05-09T07:28:40.340Z,30.57
2017-05-09T07:29:49.970Z,31.24
2017-05-09T07:31:00.453Z,30.95
2017-05-09T07:32:10.714Z,31.34
2017-05-09T07:33:20.696Z,31.53
2017-05-09T07:34:30.337Z,31.53
2017-05-09T07:35:40.604Z,31.54
2017-05-09T07:36:50.873Z,31.54
2017-05-09T07:38:00.823Z,31.45
2017-05-09T07:39:10.768Z,31.64
2017-05-09T07:40:21.032Z,31.74
2017-05-09T07:41:31.012Z,31.64
2017-05-09T07:42:40.642Z,31.83
2017-05-09T07:43:50.904Z,31.83
2017-05-09T07:45:00.854Z,31.83
2017-05-09T07:46:10.163Z,31.45
2017-05-09T07:47:20.421Z,30.19
2017-05-09T07:48:30.075Z,30
2017-05-09T07:49:40.338Z,30.1
2017-05-09T07:50:50.602Z,30.66
2017-05-09T07:52:00.236Z,29.99
2017-05-09T07:53:10.177Z,29.41
2017-05-09T07:54:20.123Z,29.51
2017-05-09T07:55:30.069Z,29.99
2017-05-09T07:56:40.332Z,30.08
2017-05-09T07:57:50.596Z,29.99
2017-05-09T07:59:00.874Z,29.99
2017-05-09T08:00:10.815Z,30.18
2017-05-09T08:01:20.438Z,30.38
2017-05-09T08:02:30.070Z,29.99
2017-05-09T08:03:40.333Z,30.38
2017-05-09T08:04:50.286Z,30.38
2017-05-09T08:06:00.237Z,30.95
2017-05-09T08:07:10.500Z,32.1
2017-05-09T08:08:20.468Z,31.62
2017-05-09T08:09:30.727Z,30.97
2017-05-09T08:10:40.990Z,30.97
2017-05-09T08:11:50.940Z,31.06
2017-05-09T08:13:00.890Z,30.38
2017-05-09T08:14:10.837Z,30.38
2017-05-09T08:15:21.100Z,30.57
2017-05-09T08:16:31.041Z,30.68
2017-05-09T08:17:41.297Z,30.95
2017-05-09T08:18:51.560Z,30.47
2017-05-09T08:20:01.863Z,31.15
2017-05-09T08:21:12.128Z,30.97
2017-05-09T08:22:21.767Z,31.45
2017-05-09T08:23:32.221Z,31.06
2017-05-09T08:24:42.521Z,30.68
2017-05-09T08:25:52.153Z,30.85
2017-05-09T08:27:02.416Z,30.38
2017-05-09T08:28:12.044Z,30.66
2017-05-09T08:29:22.306Z,30.97
2017-05-09T08:30:32.268Z,30.66
2017-05-09T08:31:42.219Z,30.57
2017-05-09T08:32:52.490Z,30.57
2017-05-09T08:34:02.432Z,30.28
2017-05-09T08:35:12.061Z,30.58
2017-05-09T08:36:22.321Z,30.85
2017-05-09T08:37:32.577Z,30.38
2017-05-09T08:38:42.531Z,30.57
2017-05-09T08:39:52.187Z,30.57
2017-05-09T08:41:02.133Z,30.18
2017-05-09T08:42:12.080Z,30.18
2017-05-09T08:43:21.711Z,30.18
2017-05-09T08:44:31.349Z,30.38
2017-05-09T08:45:41.605Z,30.38
2017-05-09T08:46:51.550Z,30.28
2017-05-09T08:48:01.190Z,30.18
2017-05-09T08:49:11.139Z,30.57
2017-05-09T08:50:21.085Z,30.28
2017-05-09T08:51:31.028Z,30.28
2017-05-09T08:52:41.304Z,30.28
2017-05-09T08:53:51.588Z,30.28
2017-05-09T08:55:01.893Z,30.57
2017-05-09T08:56:11.836Z,30.18
2017-05-09T08:57:21.465Z,31.15
2017-05-09T08:58:31.734Z,31.92
2017-05-09T08:59:41.991Z,30.66
2017-05-09T09:00:51.935Z,30.57
2017-05-09T09:02:02.194Z,30.58
2017-05-09T09:03:11.832Z,30.66
2017-05-09T09:04:22.095Z,30.68
2017-05-09T09:05:32.057Z,30.28
2017-05-09T09:06:42.317Z,31.54
2017-05-09T09:07:52.265Z,30.87
2017-05-09T09:09:02.223Z,30.58
2017-05-09T09:10:12.484Z,31.74
2017-05-09T09:11:22.118Z,30.97
2017-05-09T09:12:32.068Z,31.54
2017-05-09T09:13:42.333Z,30
2017-05-09T09:14:52.602Z,30.1
2017-05-09T09:16:02.556Z,30.08
2017-05-09T09:17:12.182Z,29.99
2017-05-09T09:18:22.124Z,30.49
2017-05-09T09:19:32.083Z,30.28
2017-05-09T09:20:42.352Z,30.57
2017-05-09T09:21:52.296Z,30.28
2017-05-09T09:23:02.256Z,30.39
2017-05-09T09:24:12.522Z,30.38
2017-05-09T09:25:22.788Z,30.18
2017-05-09T09:26:32.732Z,30.19
2017-05-09T09:27:42.985Z,29.9
2017-05-09T09:28:52.929Z,30.1
2017-05-09T09:30:02.875Z,30.18
2017-05-09T09:31:12.503Z,30.28
2017-05-09T09:32:22.136Z,30.47
2017-05-09T09:33:32.081Z,30.38
2017-05-09T09:34:42.339Z,29.9
2017-05-09T09:35:52.283Z,30.57
2017-05-09T09:37:02.235Z,30.38
2017-05-09T09:38:11.592Z,30.38
2017-05-09T09:39:21.852Z,30.47
2017-05-09T09:40:31.800Z,30.66
2017-05-09T09:41:42.066Z,30.18
2017-05-09T09:42:52.020Z,30.58
2017-05-09T09:44:01.653Z,30.68
2017-05-09T09:45:11.913Z,30.38
2017-05-09T09:46:21.859Z,30.47
2017-05-09T09:47:32.122Z,30.18
2017-05-09T09:48:42.381Z,30.28
2017-05-09T09:49:52.638Z,30.28
2017-05-09T09:51:02.589Z,30.57
2017-05-09T09:52:12.531Z,30.1
2017-05-09T09:53:22.789Z,30.47
2017-05-09T09:54:32.742Z,30.29
2017-05-09T09:55:43.009Z,30.1
2017-05-09T09:56:53.271Z,30.29
2017-05-09T09:58:03.538Z,30.76
2017-05-09T09:59:13.486Z,31.35
2017-05-09T10:00:23.753Z,30.68
2017-05-09T10:01:34.014Z,30.1
2017-05-09T10:02:44.269Z,30.58
2017-05-09T10:03:54.547Z,31.43
2017-05-09T10:05:04.499Z,31.54
2017-05-09T10:06:14.480Z,30.95
2017-05-09T10:07:24.424Z,30
2017-05-09T10:08:34.684Z,30.47
2017-05-09T10:09:44.975Z,30.1
2017-05-09T10:10:55.239Z,30.1
2017-05-09T10:12:05.185Z,29.7
2017-05-09T10:13:14.811Z,30.18
2017-05-09T10:14:24.762Z,29.99
2017-05-09T10:15:34.715Z,29.41
2017-05-09T10:16:44.668Z,30.08
2017-05-09T10:17:54.935Z,30.18
2017-05-09T10:19:04.886Z,29.32
2017-05-09T10:20:14.886Z,30.08
2017-05-09T10:21:25.151Z,29.99
2017-05-09T10:22:35.415Z,30.18
2017-05-09T10:23:45.369Z,30.18
2017-05-09T10:24:55.630Z,30.18
2017-05-09T10:26:05.611Z,29.99
2017-05-09T10:27:15.246Z,30.08
2017-05-09T10:28:25.527Z,30.08
2017-05-09T10:29:35.474Z,29.51
2017-05-09T10:30:45.739Z,30.28
2017-05-09T10:31:55.689Z,30.38
2017-05-09T10:33:05.653Z,30.18
2017-05-09T10:34:15.294Z,30.76
2017-05-09T10:35:25.552Z,30.57
2017-05-09T10:36:35.849Z,30.47
2017-05-09T10:37:45.803Z,29.99
2017-05-09T10:38:56.060Z,30.18
2017-05-09T10:40:06.013Z,30.28
2017-05-09T10:41:16.270Z,30.28
2017-05-09T10:42:26.524Z,30.28
2017-05-09T10:43:36.467Z,30.18
2017-05-09T10:44:46.730Z,30.38
2017-05-09T10:45:56.358Z,29.99
2017-05-09T10:47:06.621Z,30.08
2017-05-09T10:48:16.603Z,29.99
2017-05-09T10:49:26.862Z,29.8
2017-05-09T10:50:36.498Z,29.41
2017-05-09T10:51:46.452Z,29.61
2017-05-09T10:52:56.404Z,30.28
2017-05-09T10:54:06.039Z,29.7
2017-05-09T10:55:15.666Z,29.99
2017-05-09T10:56:25.614Z,30.18
2017-05-09T10:57:35.561Z,29.99
2017-05-09T10:58:45.826Z,30.38
2017-05-09T10:59:55.773Z,30.28
2017-05-09T11:01:05.408Z,30.38
2017-05-09T11:02:15.674Z,29.99
2017-05-09T11:03:25.636Z,30.18
2017-05-09T11:04:35.902Z,30.66
2017-05-09T11:05:46.166Z,30.08
2017-05-09T11:06:56.425Z,30.18
2017-05-09T11:08:06.692Z,30.28
2017-05-09T11:09:16.669Z,30.08
2017-05-09T11:10:26.921Z,30.47
2017-05-09T11:11:36.547Z,30.47
2017-05-09T11:12:46.806Z,31.05
2017-05-09T11:13:56.446Z,30.95
2017-05-09T11:15:06.075Z,30.76
2017-05-09T11:16:16.374Z,30.85
2017-05-09T11:17:26.627Z,31.43
2017-05-09T11:18:36.577Z,30.95
2017-05-09T11:19:46.844Z,30.66
2017-05-09T11:20:57.112Z,30.85
2017-05-09T11:22:07.381Z,30.57
2017-05-09T11:23:17.327Z,30.57
2017-05-09T11:24:27.584Z,30.28
2017-05-09T11:25:37.842Z,30.57
2017-05-09T11:26:48.107Z,30.38
2017-05-09T11:27:58.364Z,30.28
2017-05-09T11:29:08.002Z,30.38
2017-05-09T11:30:17.952Z,30.18
2017-05-09T11:31:27.904Z,30.28
2017-05-09T11:32:38.164Z,30.08
2017-05-09T11:33:48.119Z,30.66
2017-05-09T11:34:58.383Z,30.57
2017-05-09T11:36:08.332Z,30.28
2017-05-09T11:37:17.961Z,30.18
2017-05-09T11:38:27.918Z,30.28
2017-05-09T11:39:38.182Z,30.28
2017-05-09T11:40:48.133Z,30.47
2017-05-09T11:41:58.074Z,30.38
2017-05-09T11:43:08.021Z,30.18
2017-05-09T11:44:17.645Z,30.47
2017-05-09T11:45:27.589Z,30.57
2017-05-09T11:46:37.535Z,30.57
2017-05-09T11:47:47.480Z,31.05
2017-05-09T11:48:57.114Z,30.47
2017-05-09T11:50:07.384Z,30.57
2017-05-09T11:51:17.337Z,30.85
2017-05-09T11:52:27.598Z,30.95
2017-05-09T11:53:37.856Z,31.24
2017-05-09T11:54:47.492Z,31.05
2017-05-09T11:55:57.758Z,31.43
2017-05-09T11:57:07.907Z,31.72
2017-05-09T11:58:18.172Z,31.72
2017-05-09T11:59:28.436Z,31.35
2017-05-09T12:00:38.394Z,31.93
2017-05-09T12:01:48.665Z,31.92
2017-05-09T12:02:58.960Z,31.74
2017-05-09T12:04:08.920Z,32.31
2017-05-09T12:05:18.872Z,32.03
2017-05-09T12:06:29.131Z,32.12
2017-05-09T12:07:39.398Z,32.31
2017-05-09T12:08:49.648Z,31.64
2017-05-09T12:09:59.611Z,32.21
2017-05-09T12:11:09.555Z,32.21
2017-05-09T12:12:19.815Z,32.31
2017-05-09T12:13:29.444Z,32.31
2017-05-09T12:14:39.710Z,32.41
2017-05-09T12:15:49.964Z,32.51
2017-05-09T12:17:00.222Z,32.7
2017-05-09T12:18:10.167Z,32.7
2017-05-09T12:19:20.109Z,32.6
2017-05-09T12:20:30.057Z,32.51
2017-05-09T12:21:40.004Z,32.89
2017-05-09T12:22:50.277Z,32.98
2017-05-09T12:24:00.543Z,32.7
2017-05-09T12:25:10.172Z,32.51
2017-05-09T12:26:20.439Z,32.7
2017-05-09T12:27:30.377Z,33.08
2017-05-09T12:28:40.007Z,32.98
2017-05-09T12:29:50.265Z,33.08
2017-05-09T12:31:00.217Z,32.98
2017-05-09T12:32:10.478Z,32.79
2017-05-09T12:33:20.752Z,33.28
2017-05-09T12:34:31.014Z,33.28
2017-05-09T12:35:40.969Z,33.56
2017-05-09T12:36:50.602Z,33.28
2017-05-09T12:38:00.869Z,33.18
2017-05-09T12:39:10.497Z,32.98
2017-05-09T12:40:20.776Z,33.08
2017-05-09T12:41:30.731Z,33.28
2017-05-09T12:42:40.993Z,33.66
2017-05-09T12:43:50.942Z,33.18
2017-05-09T12:45:01.197Z,33.37
2017-05-09T12:46:11.142Z,33.37
2017-05-09T12:47:21.425Z,33.28
2017-05-09T12:48:30.745Z,33.28
2017-05-09T12:49:40.377Z,33.28
2017-05-09T12:50:50.327Z,33.56
2017-05-09T12:52:00.587Z,33.56
2017-05-09T12:53:10.212Z,33.56
2017-05-09T12:54:20.503Z,33.18
2017-05-09T12:55:30.760Z,33.37
2017-05-09T12:56:40.399Z,33.47
2017-05-09T12:57:50.347Z,33.47
2017-05-09T12:59:00.634Z,33.47
2017-05-09T13:00:10.893Z,33.66
2017-05-09T13:01:20.836Z,33.18
2017-05-09T13:02:30.784Z,33.37
2017-05-09T13:03:40.412Z,33.66
2017-05-09T13:04:50.355Z,33.56
2017-05-09T13:06:00.622Z,33.66
2017-05-09T13:07:10.568Z,33.56
2017-05-09T13:08:20.514Z,33.66
2017-05-09T13:09:30.777Z,33.47
2017-05-09T13:10:40.722Z,33.66
2017-05-09T13:11:50.670Z,33.47
2017-05-09T13:13:00.930Z,33.66
2017-05-09T13:14:11.197Z,33.47
2017-05-09T13:15:21.466Z,33.85
2017-05-09T13:16:31.726Z,33.66
2017-05-09T13:17:41.981Z,33.75
2017-05-09T13:18:51.927Z,33.75
2017-05-09T13:20:02.210Z,33.85
2017-05-09T13:21:12.482Z,33.85
2017-05-09T13:22:22.111Z,33.85
2017-05-09T13:23:31.743Z,33.66
2017-05-09T13:24:42.004Z,33.95
2017-05-09T13:25:51.959Z,33.85
2017-05-09T13:27:01.907Z,34.05
2017-05-09T13:28:12.170Z,34.05
2017-05-09T13:29:22.435Z,33.95
2017-05-09T13:30:32.384Z,33.85
2017-05-09T13:31:42.643Z,34.05
2017-05-09T13:32:52.582Z,34.23
2017-05-09T13:34:02.849Z,33.85
2017-05-09T13:35:12.796Z,33.85
2017-05-09T13:36:22.745Z,34.05
2017-05-09T13:37:32.381Z,34.14
2017-05-09T13:38:42.643Z,34.14
2017-05-09T13:39:52.944Z,34.05
2017-05-09T13:41:02.893Z,34.05
2017-05-09T13:42:13.154Z,34.33
2017-05-09T13:43:23.454Z,34.05
2017-05-09T13:44:33.401Z,34.35
2017-05-09T13:45:43.661Z,34.43
2017-05-09T13:46:53.602Z,34.53
2017-05-09T13:48:03.238Z,34.72
2017-05-09T13:49:13.197Z,34.25
2017-05-09T13:50:23.146Z,34.16
2017-05-09T13:51:33.409Z,34.35
2017-05-09T13:52:43.358Z,34.54
2017-05-09T13:53:53.316Z,34.16
2017-05-09T13:55:03.572Z,34.06
2017-05-09T13:56:13.524Z,34.16
2017-05-09T13:57:23.790Z,34.06
2017-05-09T13:58:34.054Z,34.35
2017-05-09T13:59:43.370Z,34.35
2017-05-09T14:00:53.639Z,34.06
2017-05-09T14:02:03.600Z,34.06
2017-05-09T14:03:13.236Z,34.06
2017-05-09T14:04:23.497Z,34.45
2017-05-09T14:05:33.453Z,34.16
2017-05-09T14:06:43.407Z,34.74
2017-05-09T14:07:53.358Z,34.54
2017-05-09T14:09:03.319Z,34.25
2017-05-09T14:10:13.270Z,34.35
2017-05-09T14:11:23.224Z,34.25
2017-05-09T14:12:33.175Z,34.35
2017-05-09T14:13:42.812Z,34.16
2017-05-09T14:14:53.075Z,34.54
2017-05-09T14:16:03.386Z,34.64
2017-05-09T14:17:12.401Z,34.16
2017-05-09T14:18:22.713Z,34.54
2017-05-09T14:19:32.361Z,34.54
2017-05-09T14:20:42.312Z,34.45
2017-05-09T14:21:52.574Z,34.83
2017-05-09T14:23:02.837Z,34.45
2017-05-09T14:24:12.479Z,34.45
2017-05-09T14:25:22.739Z,34.25
2017-05-09T14:26:32.374Z,34.64
2017-05-09T14:27:42.328Z,35.02
2017-05-09T14:28:52.278Z,34.74
2017-05-09T14:30:02.549Z,34.35
2017-05-09T14:31:12.495Z,34.25
2017-05-09T14:32:21.813Z,34.25
2017-05-09T14:33:31.769Z,34.45
2017-05-09T14:34:41.720Z,34.54
2017-05-09T14:35:51.984Z,34.35
2017-05-09T14:37:02.256Z,34.45
2017-05-09T14:38:12.525Z,34.74
2017-05-09T14:39:22.475Z,34.54
2017-05-09T14:40:32.740Z,34.74
2017-05-09T14:41:42.379Z,34.64
2017-05-09T14:42:52.024Z,34.64
2017-05-09T14:44:02.313Z,34.54
2017-05-09T14:45:11.672Z,34.54
2017-05-09T14:46:21.312Z,34.64
2017-05-09T14:47:31.615Z,34.54
2017-05-09T14:48:41.254Z,34.45
2017-05-09T14:49:51.525Z,34.64
2017-05-09T14:51:01.793Z,34.83
2017-05-09T14:52:11.435Z,34.83
2017-05-09T14:53:21.713Z,34.64
2017-05-09T14:54:31.392Z,34.35
2017-05-09T14:55:41.347Z,34.25
2017-05-09T14:56:51.607Z,35.02
2017-05-09T14:58:01.870Z,34.45
2017-05-09T14:59:11.820Z,35.02
2017-05-09T15:00:21.776Z,34.35
2017-05-09T15:01:31.725Z,34.74
2017-05-09T15:02:41.363Z,34.64
2017-05-09T15:03:51.636Z,34.74